Time;durP1;ratioP1;P1;durP2;ratioP2;P2;SDS_P1;SDS_P2;PMS_P1;PMS_P2;Temp;Humidity;BMP_temperature;BMP_pressure;BME280_temperature;BME280_humidity;BME280_pressure;Samples;Min_cycle;Max_cycle;Signal;HPM_P1;HPM_P2
2020/12/23 00:00:50;;;;;;;0.32;0.00;;;14.10;91.60;;;;;;4154743;27;20066;-89
2020/12/23 00:03:19;;;;;;;0.93;0.10;;;14.10;91.60;;;;;;4133454;27;20074;-88
2020/12/23 00:05:45;;;;;;;0.08;0.00;;;14.10;91.50;;;;;;4131697;27;20059;-89
2020/12/23 00:08:12;;;;;;;0.85;0.40;;;14.10;91.50;;;;;;4112274;34;20078;-89
2020/12/23 00:10:41;;;;;;;0.55;0.10;;;14.10;91.50;;;;;;4102660;34;20075;-88
2020/12/23 00:13:08;;;;;;;0.20;0.20;;;14.10;91.60;;;;;;4111924;34;20344;-88
2020/12/23 00:15:57;;;;;;;3.50;0.65;;;14.10;91.70;;;;;;4122044;27;20077;-89
2020/12/23 00:18:24;;;;;;;0.70;0.10;;;14.10;91.50;;;;;;4141469;27;20094;-89
2020/12/23 00:20:50;;;;;;;0.22;0.00;;;14.10;91.60;;;;;;4130175;27;20075;-89
2020/12/23 00:23:20;;;;;;;0.10;0.10;;;14.10;91.50;;;;;;4111646;34;20074;-88
2020/12/23 00:25:46;;;;;;;0.10;0.00;;;14.10;91.50;;;;;;4115933;34;20082;-91
2020/12/23 00:28:16;;;;;;;0.17;0.10;;;14.10;91.50;;;;;;4114745;27;20484;-88
2020/12/23 00:30:42;;;;;;;0.35;0.10;;;14.10;91.50;;;;;;4133251;27;20067;-89
2020/12/23 00:33:09;;;;;;;0.00;0.00;;;14.10;91.50;;;;;;4112346;34;20054;-89
2020/12/23 00:35:35;;;;;;;0.35;0.22;;;14.10;91.50;;;;;;4171387;27;20051;-90
2020/12/23 00:38:01;;;;;;;0.32;0.10;;;14.10;91.50;;;;;;4136013;27;20387;-89
2020/12/23 00:40:30;;;;;;;0.05;0.00;;;14.10;91.50;;;;;;4117095;34;20399;-88
2020/12/23 00:42:57;;;;;;;13.77;0.50;;;14.10;91.50;;;;;;4139102;34;20078;-89
2020/12/23 00:45:23;;;;;;;0.25;0.00;;;14.10;91.50;;;;;;4128575;27;20051;-90
2020/12/23 00:48:27;;;;;;;1.23;0.17;;;14.10;91.50;;;;;;4128984;34;20085;-90
2020/12/23 00:50:48;;;;;;;5.45;0.20;;;14.10;91.50;;;;;;4128698;34;20075;-89
2020/12/23 00:53:14;;;;;;;0.00;0.00;;;14.10;91.90;;;;;;4120848;27;20059;-88
2020/12/23 00:55:50;;;;;;;0.00;0.00;;;14.10;91.60;;;;;;4114170;34;20469;-89
2020/12/23 00:58:44;;;;;;;;;;;;;;;;;;;;;
2020/12/23 01:01:11;;;;;;;0.55;0.20;;;14.00;91.60;;;;;;4140435;27;20089;-89
2020/12/23 01:03:43;;;;;;;0.60;0.08;;;14.00;91.60;;;;;;4130806;27;20370;-89
2020/12/23 01:06:13;;;;;;;0.15;0.00;;;14.00;91.60;;;;;;4126744;27;20321;-89
2020/12/23 01:08:40;;;;;;;0.00;0.00;;;14.00;91.60;;;;;;4128619;27;20561;-90
2020/12/23 01:11:07;;;;;;;7.68;0.38;;;14.00;91.60;;;;;;4100211;35;20063;-88
2020/12/23 01:13:36;;;;;;;0.20;0.10;;;14.00;91.60;;;;;;4095277;35;20071;-87
2020/12/23 01:16:03;;;;;;;0.10;0.10;;;14.00;91.60;;;;;;4098103;27;20518;-88
2020/12/23 01:18:35;;;;;;;0.13;0.00;;;14.00;91.60;;;;;;4089236;27;20083;-88
2020/12/23 01:21:01;;;;;;;3.50;0.45;;;14.00;91.60;;;;;;4088071;27;20060;-90
2020/12/23 01:23:36;;;;;;;0.20;0.00;;;14.00;91.60;;;;;;4080465;35;20075;-90
2020/12/23 01:26:03;;;;;;;0.47;0.10;;;14.00;91.60;;;;;;4069952;27;20403;-89
2020/12/23 01:28:29;;;;;;;0.28;0.00;;;13.90;91.60;;;;;;4072621;27;20497;-89
2020/12/23 01:30:56;;;;;;;0.00;0.00;;;13.90;91.60;;;;;;4068120;28;20132;-89
2020/12/23 01:33:25;;;;;;;0.25;0.03;;;14.00;91.70;;;;;;4067609;27;20087;-89
2020/12/23 01:35:57;;;;;;;0.00;0.00;;;13.90;91.70;;;;;;4053946;28;20080;-89
2020/12/23 01:38:24;;;;;;;0.75;0.10;;;13.90;91.70;;;;;;4052671;27;20091;-88
2020/12/23 01:41:12;;;;;;;0.50;0.20;;;13.90;91.70;;;;;;4070662;35;20130;-90
2020/12/23 01:44:00;;;;;;;0.13;0.10;;;13.90;91.70;;;;;;4091463;27;20078;-89
2020/12/23 01:46:33;;;;;;;0.25;0.10;;;13.90;91.60;;;;;;4122089;27;20529;-89
2020/12/23 01:49:29;;;;;;;6.30;0.15;;;13.90;91.60;;;;;;4105327;27;20262;-89
2020/12/23 01:51:58;;;;;;;0.75;0.10;;;13.90;91.60;;;;;;4103516;35;20246;-88
2020/12/23 01:54:43;;;;;;;;;;;;;;;;;;;;;
2020/12/23 01:57:11;;;;;;;0.28;0.10;;;13.90;91.70;;;;;;4110428;27;20058;-89
2020/12/23 01:59:38;;;;;;;0.65;0.10;;;13.90;91.70;;;;;;4108886;27;20063;-88
2020/12/23 02:07:22;;;;;;;0.35;0.00;;;13.80;91.70;;;;;;4137601;27;20043;-89
2020/12/23 02:09:48;;;;;;;0.47;0.10;;;13.80;91.70;;;;;;4114452;34;20037;-88
2020/12/23 02:12:17;;;;;;;0.20;0.15;;;13.80;91.70;;;;;;4111343;27;20540;-91
2020/12/23 02:15:19;;;;;;;0.35;0.10;;;13.80;91.70;;;;;;4111661;35;20075;-89
2020/12/23 02:17:48;;;;;;;0.20;0.13;;;13.80;91.70;;;;;;4121085;27;20577;-91
2020/12/23 02:20:20;;;;;;;0.10;0.00;;;13.80;91.70;;;;;;4113612;27;20437;-90
2020/12/23 02:22:47;;;;;;;0.45;0.10;;;13.80;91.70;;;;;;4074045;27;20048;-91
2020/12/23 02:25:19;;;;;;;0.45;0.10;;;13.80;91.70;;;;;;4087041;27;20127;-91
2020/12/23 02:27:48;;;;;;;0.28;0.10;;;13.80;91.70;;;;;;4065967;27;20092;-90
2020/12/23 02:30:15;;;;;;;1.15;0.75;;;13.80;91.70;;;;;;4068793;27;20091;-90
2020/12/23 02:32:47;;;;;;;0.45;0.10;;;13.80;91.70;;;;;;4078332;27;20198;-91
2020/12/23 02:35:13;;;;;;;1.65;0.08;;;13.80;91.70;;;;;;4062311;35;20128;-89
2020/12/23 02:38:00;;;;;;;0.50;0.20;;;13.70;91.70;;;;;;4063376;35;20075;-90
2020/12/23 02:40:26;;;;;;;0.10;0.00;;;13.70;91.80;;;;;;4068393;35;20483;-90
2020/12/23 02:42:53;;;;;;;0.15;0.08;;;13.70;91.80;;;;;;4076524;27;20514;-90
2020/12/23 02:45:19;;;;;;;0.00;0.00;;;13.70;91.80;;;;;;4061492;28;20075;-89
2020/12/23 02:47:46;;;;;;;1.23;0.52;;;13.70;91.80;;;;;;4064041;35;20111;-90
2020/12/23 02:50:12;;;;;;;0.10;0.03;;;13.70;91.80;;;;;;4087153;27;20083;-90
2020/12/23 02:52:39;;;;;;;0.38;0.17;;;13.70;92.20;;;;;;4069785;27;20609;-91
2020/12/23 02:55:05;;;;;;;0.08;0.00;;;13.70;91.80;;;;;;4101934;35;20082;-90
2020/12/23 02:57:37;;;;;;;1.17;0.20;;;13.70;91.80;;;;;;4128419;27;20487;-90
2020/12/23 03:00:14;;;;;;;0.17;0.00;;;13.70;91.80;;;;;;4104730;27;20144;-91
2020/12/23 03:03:53;;;;;;;;;;;;;;;;;;;;;
2020/12/23 03:08:51;;;;;;;0.05;0.00;;;13.60;91.80;;;;;;4116092;35;20135;-89
2020/12/23 03:11:18;;;;;;;0.60;0.20;;;13.60;91.80;;;;;;4113578;35;20110;-91
2020/12/23 03:13:46;;;;;;;7.78;0.43;;;13.60;91.80;;;;;;4108885;35;20032;-91
2020/12/23 03:16:13;;;;;;;0.15;0.10;;;13.60;91.80;;;;;;4122090;27;20490;-91
2020/12/23 03:18:43;;;;;;;0.10;0.00;;;13.60;91.80;;;;;;4112655;27;20047;-90
2020/12/23 03:21:12;;;;;;;0.00;0.00;;;13.60;91.80;;;;;;4101705;35;20078;-88
2020/12/23 03:23:38;;;;;;;2.08;0.30;;;13.60;91.80;;;;;;4100898;35;20075;-90
2020/12/23 03:26:05;;;;;;;0.15;0.08;;;13.50;91.80;;;;;;4129172;27;20490;-89
2020/12/23 03:28:32;;;;;;;1.55;0.20;;;13.50;91.80;;;;;;4104004;27;20074;-91
2020/12/23 03:30:58;;;;;;;0.20;0.10;;;13.50;91.80;;;;;;4114351;27;20075;-89
2020/12/23 03:33:25;;;;;;;0.10;0.00;;;13.50;91.80;;;;;;4100750;35;20067;-91
2020/12/23 03:35:51;;;;;;;0.17;0.00;;;13.50;91.80;;;;;;4118339;27;20047;-91
2020/12/23 03:38:30;;;;;;;1.88;0.20;;;13.50;91.80;;;;;;4109472;27;20056;-90
2020/12/23 03:40:56;;;;;;;1.65;0.20;;;13.50;91.80;;;;;;4102417;35;20107;-90
2020/12/23 03:43:26;;;;;;;1.65;0.45;;;13.60;91.80;;;;;;4101643;35;20063;-90
2020/12/23 03:45:52;;;;;;;4.35;0.22;;;13.60;91.70;;;;;;4101262;28;20079;-90
2020/12/23 03:48:19;;;;;;;0.80;0.15;;;13.60;91.70;;;;;;4101820;35;20063;-90
2020/12/23 03:50:45;;;;;;;0.00;0.00;;;13.50;91.70;;;;;;4102956;27;20074;-88
2020/12/23 03:53:12;;;;;;;0.10;0.00;;;13.60;91.70;;;;;;4119155;27;20463;-90
2020/12/23 03:55:38;;;;;;;1.10;0.25;;;13.60;91.70;;;;;;4100595;35;20079;-90
2020/12/23 03:58:05;;;;;;;1.73;0.10;;;13.60;91.70;;;;;;4111948;35;20521;-88
2020/12/23 04:00:31;;;;;;;0.40;0.10;;;13.60;91.60;;;;;;4098529;28;20093;-91
2020/12/23 04:02:58;;;;;;;7.70;0.80;;;13.60;91.60;;;;;;4114730;27;20387;-91
2020/12/23 04:05:24;;;;;;;2.28;0.10;;;13.60;91.60;;;;;;4101460;35;20084;-90
2020/12/23 04:07:53;;;;;;;0.00;0.00;;;13.60;91.60;;;;;;4105573;27;20067;-90
2020/12/23 04:10:19;;;;;;;6.88;0.40;;;13.70;91.60;;;;;;4100924;35;20079;-89
2020/12/23 04:12:46;;;;;;;1.17;0.10;;;13.70;91.60;;;;;;4098946;35;20377;-89
2020/12/23 04:15:12;;;;;;;0.63;0.25;;;13.60;91.60;;;;;;4113088;27;20052;-89
2020/12/23 04:17:40;;;;;;;0.00;0.00;;;13.70;91.60;;;;;;4136709;27;20086;-91
2020/12/23 04:20:07;;;;;;;0.55;0.25;;;13.70;91.60;;;;;;4128278;27;20214;-91
2020/12/23 04:25:07;;;;;;;1.65;0.03;;;13.70;91.50;;;;;;4152005;27;20106;-88
2020/12/23 04:27:34;;;;;;;0.25;0.03;;;13.70;91.60;;;;;;4122101;34;20047;-88
2020/12/23 04:30:00;;;;;;;0.00;0.00;;;13.70;91.50;;;;;;4133428;34;20315;-90
2020/12/23 04:32:32;;;;;;;0.03;0.00;;;13.70;91.50;;;;;;4130040;27;20463;-89
2020/12/23 04:35:01;;;;;;;0.28;0.10;;;13.70;91.50;;;;;;4115952;34;20081;-90
2020/12/23 04:37:32;;;;;;;0.55;0.00;;;13.70;91.50;;;;;;4130923;27;20085;-90
2020/12/23 04:39:58;;;;;;;0.00;0.00;;;13.70;91.50;;;;;;4140389;27;20078;-88
2020/12/23 04:42:34;;;;;;;0.00;0.00;;;13.70;91.50;;;;;;4126918;27;20094;-90
2020/12/23 04:45:01;;;;;;;0.10;0.00;;;13.70;91.50;;;;;;4119417;27;20059;-89
2020/12/23 04:47:32;;;;;;;0.68;0.13;;;13.70;91.50;;;;;;4121257;27;20486;-89
2020/12/23 04:49:58;;;;;;;0.00;0.00;;;13.70;91.50;;;;;;4143086;27;20032;-89
2020/12/23 04:52:34;;;;;;;0.05;0.00;;;13.70;91.50;;;;;;4127654;27;20101;-88
2020/12/23 04:55:04;;;;;;;0.73;0.10;;;13.70;91.50;;;;;;4137148;27;20058;-87
2020/12/23 04:57:30;;;;;;;0.08;0.00;;;13.70;91.50;;;;;;4162144;27;20078;-88
2020/12/23 04:59:57;;;;;;;0.93;0.20;;;13.70;91.50;;;;;;4130000;27;20062;-87
2020/12/23 05:02:23;;;;;;;0.10;0.00;;;13.70;91.50;;;;;;4140370;27;20063;-87
2020/12/23 05:04:50;;;;;;;0.22;0.10;;;13.70;91.50;;;;;;4129467;34;20074;-87
2020/12/23 05:07:22;;;;;;;0.30;0.03;;;13.70;91.50;;;;;;4122642;34;20085;-88
2020/12/23 05:09:49;;;;;;;0.00;0.00;;;13.70;91.50;;;;;;4134172;27;20086;-87
2020/12/23 05:12:25;;;;;;;0.88;0.13;;;13.70;91.50;;;;;;4127453;34;20213;-87
2020/12/23 05:14:51;;;;;;;0.30;0.20;;;13.70;91.50;;;;;;4176021;27;20385;-89
2020/12/23 05:17:17;;;;;;;0.98;0.15;;;13.70;91.50;;;;;;4156633;27;20051;-88
2020/12/23 05:19:45;;;;;;;0.10;0.05;;;13.70;91.50;;;;;;4127719;35;20419;-88
2020/12/23 05:22:13;;;;;;;0.20;0.08;;;13.60;91.50;;;;;;4127913;35;20063;-87
2020/12/23 05:24:40;;;;;;;0.00;0.00;;;13.60;91.50;;;;;;4162165;27;20047;-87
2020/12/23 05:27:06;;;;;;;0.30;0.00;;;13.60;91.50;;;;;;4115712;35;20419;-87
2020/12/23 05:29:33;;;;;;;0.63;0.35;;;13.60;91.50;;;;;;4110488;35;20560;-87
2020/12/23 05:32:03;;;;;;;0.17;0.03;;;13.60;91.60;;;;;;4128300;27;20067;-88
2020/12/23 05:34:32;;;;;;;0.10;0.00;;;13.60;91.60;;;;;;4135985;27;20047;-89
2020/12/23 05:37:00;;;;;;;0.20;0.10;;;13.50;91.50;;;;;;4117165;35;20060;-88
2020/12/23 05:39:26;;;;;;;0.00;0.00;;;13.50;91.60;;;;;;4107352;27;20082;-87
2020/12/23 05:41:53;;;;;;;0.00;0.00;;;13.50;91.60;;;;;;4120487;27;20404;-89
2020/12/23 05:44:20;;;;;;;0.00;0.00;;;13.50;91.60;;;;;;4135766;27;20067;-87
2020/12/23 05:46:50;;;;;;;0.22;0.10;;;13.50;91.60;;;;;;4129676;27;20051;-87
2020/12/23 05:49:16;;;;;;;1.10;0.20;;;13.50;91.60;;;;;;4120794;27;20094;-87
2020/12/23 05:51:43;;;;;;;0.03;0.03;;;13.50;91.60;;;;;;4148789;27;20074;-87
2020/12/23 05:55:00;;;;;;;0.43;0.05;;;13.50;91.50;;;;;;4169009;27;20075;-87
2020/12/23 05:57:35;;;;;;;0.00;0.00;;;13.50;91.50;;;;;;4150147;27;20471;-87
2020/12/23 06:00:01;;;;;;;0.13;0.05;;;13.50;91.50;;;;;;4127350;35;20525;-88
2020/12/23 06:02:27;;;;;;;0.35;0.15;;;13.50;91.50;;;;;;4152494;27;20419;-88
2020/12/23 06:04:54;;;;;;;0.68;0.10;;;13.50;91.50;;;;;;4137455;27;20052;-88
2020/12/23 06:07:20;;;;;;;0.00;0.00;;;13.50;91.50;;;;;;4116659;35;20387;-88
2020/12/23 06:09:49;;;;;;;0.38;0.10;;;13.50;91.50;;;;;;4117286;27;20055;-86
2020/12/23 06:12:20;;;;;;;0.40;0.10;;;13.50;91.50;;;;;;4120687;27;20086;-87
2020/12/23 06:14:57;;;;;;;0.05;0.00;;;13.50;91.50;;;;;;4155850;27;20059;-88
2020/12/23 06:17:24;;;;;;;1.45;0.32;;;13.60;91.50;;;;;;4141517;27;20074;-88
2020/12/23 06:19:56;;;;;;;0.20;0.00;;;13.50;91.50;;;;;;4116298;35;20070;-87
2020/12/23 06:22:27;;;;;;;0.10;0.10;;;13.50;91.50;;;;;;4117737;35;20495;-87
2020/12/23 06:24:53;;;;;;;0.10;0.10;;;13.50;91.50;;;;;;4106920;35;20086;-87
2020/12/23 06:27:19;;;;;;;0.00;0.00;;;13.50;91.50;;;;;;4117535;35;20303;-87
2020/12/23 06:29:48;;;;;;;0.25;0.00;;;13.50;91.50;;;;;;4149984;27;20067;-89
2020/12/23 06:32:22;;;;;;;0.20;0.05;;;13.50;91.50;;;;;;4138759;27;20070;-87
2020/12/23 06:34:58;;;;;;;0.10;0.00;;;13.50;91.50;;;;;;4141068;27;20067;-84
2020/12/23 06:37:34;;;;;;;0.43;0.10;;;13.50;91.50;;;;;;4128283;35;20078;-83
2020/12/23 06:40:10;;;;;;;0.10;0.00;;;13.50;91.50;;;;;;4136961;27;20067;-84
2020/12/23 06:42:44;;;;;;;0.00;0.00;;;13.50;91.40;;;;;;4152781;27;20082;-85
2020/12/23 06:45:12;;;;;;;0.70;0.35;;;13.50;91.40;;;;;;4126927;35;20086;-85
2020/12/23 06:47:39;;;;;;;0.00;0.00;;;13.50;91.40;;;;;;4127478;35;20106;-86
2020/12/23 06:50:26;;;;;;;0.90;0.32;;;13.50;91.40;;;;;;4128020;35;20472;-85
2020/12/23 06:52:53;;;;;;;1.02;0.00;;;13.50;91.40;;;;;;4125200;35;20094;-85
2020/12/23 06:55:19;;;;;;;0.57;0.30;;;13.50;91.40;;;;;;4113368;35;20377;-84
2020/12/23 06:57:46;;;;;;;0.10;0.00;;;13.50;91.40;;;;;;4143563;27;20094;-84
2020/12/23 07:00:25;;;;;;;0.10;0.10;;;13.50;91.40;;;;;;4134014;27;20606;-87
2020/12/23 07:02:52;;;;;;;0.93;0.22;;;13.50;91.40;;;;;;4126020;35;20121;-85
2020/12/23 07:05:21;;;;;;;0.08;0.00;;;13.50;91.40;;;;;;4131707;27;20074;-84
2020/12/23 07:07:58;;;;;;;0.10;0.00;;;13.50;91.40;;;;;;4125200;35;20125;-84
2020/12/23 07:10:44;;;;;;;0.70;0.20;;;13.50;91.40;;;;;;4124391;35;20043;-85
2020/12/23 07:13:14;;;;;;;0.00;0.00;;;13.50;91.40;;;;;;4127184;34;20059;-85
2020/12/23 07:15:43;;;;;;;0.30;0.00;;;13.50;91.40;;;;;;4121371;27;20043;-85
2020/12/23 07:18:13;;;;;;;0.00;0.00;;;13.50;91.70;;;;;;4146645;27;20178;-83
2020/12/23 07:20:45;;;;;;;0.43;0.30;;;13.50;91.40;;;;;;4112545;35;20090;-85
2020/12/23 07:23:13;;;;;;;0.03;0.00;;;13.50;91.40;;;;;;4089848;35;20079;-85
2020/12/23 07:25:47;;;;;;;0.08;0.00;;;13.50;91.40;;;;;;4113731;35;20055;-85
2020/12/23 07:28:16;;;;;;;0.98;0.10;;;13.50;91.40;;;;;;4127835;27;20095;-84
2020/12/23 07:30:43;;;;;;;0.00;0.00;;;13.50;91.40;;;;;;4139257;27;20070;-84
2020/12/23 07:33:19;;;;;;;0.30;0.00;;;13.40;91.40;;;;;;4127963;35;20086;-85
2020/12/23 07:35:55;;;;;;;0.10;0.00;;;13.40;91.40;;;;;;4174832;27;20159;-84
2020/12/23 07:38:23;;;;;;;0.05;0.00;;;13.40;91.80;;;;;;4105547;35;20056;-85
2020/12/23 07:40:52;;;;;;;3.42;0.30;;;13.40;91.40;;;;;;4126560;35;20063;-83
2020/12/23 07:43:19;;;;;;;0.00;0.00;;;13.40;91.50;;;;;;4112684;35;20368;-83
2020/12/23 07:46:00;;;;;;;2.53;0.47;;;13.40;91.50;;;;;;4126615;27;20447;-83
2020/12/23 07:48:28;;;;;;;0.70;0.40;;;13.40;91.50;;;;;;4098433;27;20082;-83
2020/12/23 07:51:04;;;;;;;0.30;0.10;;;13.40;91.80;;;;;;4104411;27;20090;-84
2020/12/23 07:53:37;;;;;;;0.68;0.10;;;13.40;91.40;;;;;;4093378;35;20086;-86
2020/12/23 07:56:19;;;;;;;0.20;0.10;;;13.50;91.40;;;;;;4102878;35;20095;-84
2020/12/23 07:58:52;;;;;;;0.05;0.00;;;13.50;91.40;;;;;;4116051;35;20086;-84
2020/12/23 08:01:24;;;;;;;0.17;0.00;;;13.50;91.40;;;;;;4107730;27;20083;-83
2020/12/23 08:03:50;;;;;;;0.15;0.10;;;13.50;91.40;;;;;;4106211;27;20136;-82
2020/12/23 08:06:22;;;;;;;0.17;0.00;;;13.50;91.40;;;;;;4088684;35;20398;-84
2020/12/23 08:08:50;;;;;;;0.25;0.00;;;13.50;91.40;;;;;;4104397;27;20099;-83
2020/12/23 08:11:28;;;;;;;0.08;0.00;;;13.50;91.30;;;;;;4099750;27;20090;-87
2020/12/23 08:14:02;;;;;;;1.15;0.25;;;13.50;91.40;;;;;;4106774;35;20071;-89
2020/12/23 08:16:28;;;;;;;0.05;0.00;;;13.60;91.30;;;;;;4104023;28;20096;-83
2020/12/23 08:18:58;;;;;;;0.08;0.00;;;13.60;91.20;;;;;;4114253;35;20086;-85
2020/12/23 08:21:26;;;;;;;0.10;0.00;;;13.70;91.10;;;;;;4102450;35;20442;-85
2020/12/23 08:23:55;;;;;;;0.20;0.00;;;13.70;91.10;;;;;;4116374;27;20496;-86
2020/12/23 08:26:22;;;;;;;0.00;0.00;;;13.70;91.10;;;;;;4103344;35;20100;-87
2020/12/23 08:28:48;;;;;;;0.00;0.00;;;13.70;91.10;;;;;;4103596;35;20082;-86
2020/12/23 08:31:25;;;;;;;0.22;0.03;;;13.60;91.10;;;;;;4092523;27;20113;-86
2020/12/23 08:33:52;;;;;;;0.00;0.00;;;13.60;91.20;;;;;;4103594;27;20530;-86
2020/12/23 08:36:20;;;;;;;0.13;0.03;;;13.60;91.30;;;;;;4091574;35;20099;-86
2020/12/23 08:38:49;;;;;;;0.13;0.00;;;13.60;91.30;;;;;;4096371;27;20086;-85
2020/12/23 08:41:20;;;;;;;0.75;0.32;;;13.50;91.30;;;;;;4114887;35;20512;-85
2020/12/23 08:43:47;;;;;;;0.15;0.00;;;13.50;91.30;;;;;;4091905;35;20090;-86
2020/12/23 08:46:32;;;;;;;0.00;0.00;;;13.50;91.30;;;;;;4117852;27;20271;-87
2020/12/23 08:48:59;;;;;;;0.40;0.10;;;13.60;91.40;;;;;;4102701;27;20097;-87
2020/12/23 08:51:26;;;;;;;0.40;0.15;;;13.50;91.30;;;;;;4095910;35;20071;-85
2020/12/23 08:53:52;;;;;;;0.10;0.10;;;13.60;91.30;;;;;;4109498;27;20067;-88
2020/12/23 08:56:29;;;;;;;0.00;0.00;;;13.60;91.30;;;;;;4111613;27;20079;-88
2020/12/23 08:59:14;;;;;;;0.75;0.30;;;13.60;91.20;;;;;;4109265;27;20078;-87
2020/12/23 09:01:41;;;;;;;0.00;0.00;;;13.60;91.20;;;;;;4099064;27;20478;-87
2020/12/23 09:04:21;;;;;;;0.20;0.10;;;13.60;91.20;;;;;;4096265;35;20078;-87
2020/12/23 09:06:57;;;;;;;0.10;0.00;;;13.60;91.20;;;;;;4103064;27;20510;-86
2020/12/23 09:09:24;;;;;;;0.47;0.20;;;13.70;91.10;;;;;;4096627;35;20593;-85
2020/12/23 09:11:54;;;;;;;0.00;0.00;;;13.70;91.10;;;;;;4121367;35;20083;-86
2020/12/23 09:14:34;;;;;;;0.00;0.00;;;13.70;91.10;;;;;;4088128;27;20075;-86
2020/12/23 09:17:07;;;;;;;0.17;0.05;;;13.80;91.10;;;;;;4101325;27;20352;-86
2020/12/23 09:20:22;;;;;;;0.00;0.00;;;13.80;91.00;;;;;;4110549;27;20476;-87
2020/12/23 09:22:49;;;;;;;0.00;0.00;;;13.80;91.00;;;;;;4105937;27;20067;-88
2020/12/23 09:25:20;;;;;;;0.00;0.00;;;13.90;90.90;;;;;;4103442;27;20078;-88
2020/12/23 09:27:54;;;;;;;0.00;0.00;;;13.90;90.90;;;;;;4106713;27;20075;-90
2020/12/23 09:30:42;;;;;;;1.23;0.10;;;13.90;90.80;;;;;;4098296;27;20520;-88
2020/12/23 09:33:12;;;;;;;0.00;0.00;;;14.00;90.80;;;;;;4123054;35;20070;-88
2020/12/23 09:35:43;;;;;;;0.30;0.10;;;14.00;90.70;;;;;;4086761;27;20074;-89
2020/12/23 09:38:34;;;;;;;0.03;0.00;;;14.10;90.70;;;;;;4087583;35;20069;-87
2020/12/23 09:41:04;;;;;;;0.22;0.13;;;14.10;90.70;;;;;;4105402;27;20082;-87
2020/12/23 09:43:33;;;;;;;0.10;0.10;;;14.10;90.70;;;;;;4118822;35;20071;-88
2020/12/23 09:46:05;;;;;;;0.00;0.00;;;14.10;90.60;;;;;;4119193;27;20249;-89
2020/12/23 09:48:34;;;;;;;0.68;0.40;;;14.20;90.60;;;;;;4092274;27;20067;-88
2020/12/23 09:51:05;;;;;;;0.20;0.13;;;14.20;90.60;;;;;;4098821;35;20115;-87
2020/12/23 09:53:33;;;;;;;2.28;0.30;;;14.20;90.60;;;;;;4091173;27;20439;-88
2020/12/23 09:56:16;;;;;;;0.47;0.20;;;14.20;90.60;;;;;;4106551;35;20089;-86
2020/12/23 09:58:42;;;;;;;4.88;0.25;;;14.20;90.60;;;;;;4106778;35;20079;-85
2020/12/23 10:01:15;;;;;;;0.05;0.00;;;14.20;90.60;;;;;;4121938;27;20082;-86
2020/12/23 10:03:44;;;;;;;0.03;0.03;;;14.20;90.60;;;;;;4109452;27;20086;-86
2020/12/23 10:06:27;;;;;;;0.00;0.00;;;14.20;90.60;;;;;;4095393;27;20051;-86
2020/12/23 10:08:53;;;;;;;0.00;0.00;;;14.20;90.60;;;;;;4125654;27;20074;-85
2020/12/23 10:11:21;;;;;;;0.20;0.10;;;14.20;90.50;;;;;;4106941;35;20083;-87
2020/12/23 10:13:50;;;;;;;0.35;0.25;;;14.30;90.60;;;;;;4126923;27;20089;-86
2020/12/23 10:16:19;;;;;;;0.13;0.00;;;14.30;90.50;;;;;;4106527;27;20070;-86
2020/12/23 10:18:56;;;;;;;0.10;0.10;;;14.40;90.40;;;;;;4112125;35;20084;-86
2020/12/23 10:21:23;;;;;;;0.00;0.00;;;14.40;90.30;;;;;;4117715;35;20334;-86
2020/12/23 10:23:49;;;;;;;2.40;0.03;;;14.40;90.30;;;;;;4112063;27;20067;-85
2020/12/23 10:26:16;;;;;;;0.93;0.32;;;14.40;90.30;;;;;;4107643;35;20079;-85
2020/12/23 10:28:49;;;;;;;2.28;0.28;;;14.50;90.30;;;;;;4102245;27;20059;-87
2020/12/23 10:31:16;;;;;;;0.00;0.00;;;14.50;90.30;;;;;;4143662;27;20063;-87
2020/12/23 10:33:47;;;;;;;0.20;0.10;;;14.50;90.30;;;;;;4137515;27;20067;-88
2020/12/23 10:36:16;;;;;;;0.75;0.10;;;14.50;90.30;;;;;;4148120;27;20078;-86
2020/12/23 10:38:45;;;;;;;0.00;0.00;;;14.50;90.30;;;;;;4132594;34;20397;-87
2020/12/23 10:41:29;;;;;;;9.95;0.10;;;14.50;90.20;;;;;;4136489;27;20117;-86
2020/12/23 10:44:04;;;;;;;0.00;0.00;;;14.60;90.20;;;;;;4140707;27;20089;-88
2020/12/23 10:46:31;;;;;;;0.00;0.00;;;14.70;90.10;;;;;;4120727;27;20595;-88
2020/12/23 10:48:57;;;;;;;0.22;0.05;;;14.70;90.00;;;;;;4135793;27;20406;-87
2020/12/23 10:51:24;;;;;;;0.00;0.00;;;14.70;90.00;;;;;;4141943;34;20066;-86
2020/12/23 10:53:50;;;;;;;0.05;0.03;;;14.70;90.00;;;;;;4134863;27;20086;-87
2020/12/23 10:56:17;;;;;;;0.10;0.00;;;14.70;90.00;;;;;;4137090;27;20082;-87
2020/12/23 10:58:43;;;;;;;0.00;0.00;;;14.70;89.90;;;;;;4134936;27;20094;-87
2020/12/23 11:01:09;;;;;;;0.00;0.00;;;14.70;89.90;;;;;;4130313;27;20089;-86
2020/12/23 11:03:39;;;;;;;0.00;0.00;;;14.70;89.90;;;;;;4132556;34;20102;-87
2020/12/23 11:06:08;;;;;;;0.73;0.30;;;14.80;89.90;;;;;;4131971;27;20548;-87
2020/12/23 11:08:35;;;;;;;0.00;0.00;;;14.80;89.80;;;;;;4146296;27;20070;-87
2020/12/23 11:11:01;;;;;;;0.32;0.25;;;14.80;89.70;;;;;;4137269;34;20117;-88
2020/12/23 11:13:31;;;;;;;0.00;0.00;;;14.80;89.70;;;;;;4139099;27;20513;-88
2020/12/23 11:16:14;;;;;;;3.60;0.80;;;14.80;89.60;;;;;;4140874;27;20378;-88
2020/12/23 11:18:40;;;;;;;0.00;0.00;;;14.80;89.60;;;;;;4126719;34;20070;-88
2020/12/23 11:21:07;;;;;;;0.00;0.00;;;14.80;89.60;;;;;;4133047;34;20090;-86
2020/12/23 11:23:33;;;;;;;3.00;0.30;;;14.80;89.60;;;;;;4135731;27;20063;-88
2020/12/23 11:26:19;;;;;;;0.63;0.38;;;14.80;89.60;;;;;;4147455;27;20055;-87
2020/12/23 11:28:46;;;;;;;0.00;0.00;;;14.80;89.60;;;;;;4130863;27;20097;-89
2020/12/23 11:31:13;;;;;;;0.00;0.00;;;14.80;89.60;;;;;;4149312;27;20396;-89
2020/12/23 11:33:42;;;;;;;1.75;0.05;;;14.70;89.60;;;;;;4134215;34;20082;-89
2020/12/23 11:36:14;;;;;;;0.00;0.00;;;14.70;89.60;;;;;;4128040;27;20090;-88
2020/12/23 11:38:50;;;;;;;0.10;0.00;;;14.70;89.60;;;;;;4117416;34;20070;-87
2020/12/23 11:41:22;;;;;;;0.00;0.00;;;14.60;89.60;;;;;;4131240;34;20087;-87
2020/12/23 11:43:57;;;;;;;0.00;0.00;;;14.70;89.70;;;;;;4123202;34;20082;-86
2020/12/23 11:46:24;;;;;;;0.35;0.35;;;14.60;89.50;;;;;;4107984;27;20046;-87
2020/12/23 11:48:50;;;;;;;0.00;0.00;;;14.70;89.60;;;;;;4123171;35;20089;-88
2020/12/23 11:51:37;;;;;;;0.15;0.10;;;14.80;89.20;;;;;;4113291;35;20354;-87
2020/12/23 11:54:10;;;;;;;0.00;0.00;;;14.90;88.80;;;;;;4112777;27;20071;-87
2020/12/23 11:56:44;;;;;;;0.00;0.00;;;14.90;88.50;;;;;;4116054;34;20059;-87
2020/12/23 11:59:11;;;;;;;0.00;0.00;;;14.90;88.40;;;;;;4124345;34;20054;-87
2020/12/23 12:02:03;;;;;;;1.45;0.45;;;14.90;88.50;;;;;;4139285;27;20042;31
2020/12/23 12:04:29;;;;;;;0.00;0.00;;;14.80;88.50;;;;;;4088869;35;20083;-89
2020/12/23 12:07:00;;;;;;;0.10;0.10;;;14.80;88.40;;;;;;4083379;27;20083;-88
2020/12/23 12:09:31;;;;;;;0.35;0.10;;;14.90;88.40;;;;;;4069688;27;20104;-88
2020/12/23 12:12:04;;;;;;;0.35;0.32;;;15.00;87.70;;;;;;4069746;35;20064;-87
2020/12/23 12:14:32;;;;;;;3.78;0.25;;;15.20;87.10;;;;;;4068959;35;20088;-87
2020/12/23 12:16:58;;;;;;;0.20;0.00;;;15.10;86.80;;;;;;4061734;28;20112;-84
2020/12/23 12:19:25;;;;;;;3.63;0.05;;;15.10;86.90;;;;;;4061422;27;20072;-85
2020/12/23 12:21:51;;;;;;;0.13;0.10;;;14.90;87.00;;;;;;4066813;27;20072;-85
2020/12/23 12:24:17;;;;;;;5.38;0.38;;;14.90;87.30;;;;;;4072317;35;20342;-83
2020/12/23 12:26:44;;;;;;;3.63;0.10;;;14.70;87.20;;;;;;4063814;35;20104;-85
2020/12/23 12:29:11;;;;;;;5.93;0.57;;;14.70;87.40;;;;;;4067570;27;20437;-87
2020/12/23 12:31:40;;;;;;;0.08;0.08;;;14.60;87.30;;;;;;4065725;28;20408;-88
2020/12/23 12:34:06;;;;;;;0.00;0.00;;;14.50;87.30;;;;;;4055940;27;20092;-87
2020/12/23 12:36:34;;;;;;;0.15;0.10;;;14.40;87.60;;;;;;4064728;35;20083;-89
2020/12/23 12:39:02;;;;;;;0.00;0.00;;;14.40;87.70;;;;;;4052251;35;20096;-88
2020/12/23 12:41:31;;;;;;;0.05;0.05;;;14.40;87.60;;;;;;4075394;35;20100;-87
2020/12/23 12:44:01;;;;;;;0.00;0.00;;;14.40;87.40;;;;;;4063245;35;20091;-87
2020/12/23 12:46:48;;;;;;;0.00;0.00;;;14.30;87.30;;;;;;4053974;28;20079;-87
2020/12/23 12:49:22;;;;;;;0.10;0.10;;;14.20;88.00;;;;;;4074998;35;20404;-87
2020/12/23 12:51:53;;;;;;;0.20;0.20;;;14.20;87.20;;;;;;4070293;27;20084;-88
2020/12/23 12:54:19;;;;;;;0.20;0.13;;;14.10;87.00;;;;;;4080590;27;20036;-87
2020/12/23 12:56:57;;;;;;;0.00;0.00;;;14.10;87.00;;;;;;4077180;27;20298;-88
2020/12/23 12:59:48;;;;;;;2.65;0.03;;;14.00;87.00;;;;;;4157833;27;20039;-86
2020/12/23 13:02:22;;;;;;;0.30;0.10;;;13.90;86.80;;;;;;4151267;27;20517;-88
2020/12/23 13:04:51;;;;;;;0.00;0.00;;;13.90;86.90;;;;;;4133899;27;20074;-87
2020/12/23 13:07:23;;;;;;;0.17;0.10;;;13.90;86.80;;;;;;4108796;27;20078;-86
2020/12/23 13:09:50;;;;;;;12.25;0.70;;;13.90;86.60;;;;;;4129096;34;20089;-88
2020/12/23 13:12:19;;;;;;;2.13;0.15;;;14.00;86.30;;;;;;4118385;34;20074;-88
2020/12/23 13:14:49;;;;;;;0.20;0.20;;;14.10;85.90;;;;;;4120714;27;20411;-87
2020/12/23 13:17:15;;;;;;;0.00;0.00;;;14.10;85.80;;;;;;4127593;27;20078;-87
2020/12/23 13:19:41;;;;;;;1.30;0.30;;;14.20;85.30;;;;;;4128975;34;20054;-88